Time;durP1;ratioP1;P1;durP2;ratioP2;P2;SDS_P1;SDS_P2;PMS_P1;PMS_P2;Temp;Humidity;BMP_temperature;BMP_pressure;BME280_temperature;BME280_humidity;BME280_pressure;Samples;Min_cycle;Max_cycle;Signal;HPM_P1;HPM_P2
2022/09/13 00:01:12;;;;;;;8.05;5.57;;;;;;;11.46;100.00;92999.75;5104773;28;20055;-73
2022/09/13 00:03:38;;;;;;;6.50;5.88;;;;;;;11.49;100.00;93000.09;5107935;28;20093;-73
2022/09/13 00:06:11;;;;;;;7.03;5.85;;;;;;;11.45;100.00;92998.97;5090773;28;20044;-73
2022/09/13 00:08:39;;;;;;;6.28;5.68;;;;;;;11.43;100.00;92998.41;5090310;28;20568;-73
2022/09/13 00:11:07;;;;;;;6.53;5.93;;;;;;;11.25;100.00;93003.59;5090388;28;20036;-73
2022/09/13 00:13:34;;;;;;;7.00;6.30;;;;;;;11.16;100.00;92998.00;5090414;28;20044;-73
2022/09/13 00:16:02;;;;;;;7.05;6.07;;;;;;;11.23;100.00;92983.25;5098998;27;20039;-73
2022/09/13 00:18:29;;;;;;;8.48;5.82;;;;;;;11.28;100.00;92990.28;5108912;28;20058;-72
2022/09/13 00:21:05;;;;;;;6.53;5.93;;;;;;;11.18;100.00;92983.13;5110167;28;20520;-72
2022/09/13 00:23:32;;;;;;;;;;;;;;;11.27;100.00;92986.97;5093892;28;20400;-72
2022/09/13 00:26:05;;;;;;;6.85;6.15;;;;;;;11.35;100.00;92975.59;5089855;28;20382;-72
2022/09/13 00:28:32;;;;;;;8.20;5.97;;;;;;;11.40;100.00;92980.84;5095580;28;20555;-73
2022/09/13 00:31:00;;;;;;;6.32;5.45;;;;;;;11.44;100.00;92966.53;5104951;28;20076;-73
2022/09/13 00:33:27;;;;;;;6.00;5.40;;;;;;;11.54;100.00;92970.34;5105543;28;20403;-72
2022/09/13 00:35:54;;;;;;;8.43;5.55;;;;;;;11.60;100.00;92977.19;5104890;28;20089;-73
2022/09/13 00:38:20;;;;;;;7.30;5.88;;;;;;;11.66;100.00;92980.69;5094057;28;20044;-73
2022/09/13 00:40:47;;;;;;;6.70;6.07;;;;;;;11.69;100.00;92972.50;5101309;28;20040;-73
2022/09/13 00:43:18;;;;;;;6.13;5.53;;;;;;;11.74;100.00;92962.31;5098129;28;20057;-73
2022/09/13 00:45:46;;;;;;;6.90;5.63;;;;;;;11.76;100.00;92965.47;5107100;28;20044;-73
2022/09/13 00:48:20;;;;;;;7.22;5.97;;;;;;;11.82;100.00;92974.88;5096664;28;20067;-73
2022/09/13 00:50:51;;;;;;;7.63;6.13;;;;;;;11.77;100.00;92962.66;5089753;28;20056;-73
2022/09/13 00:53:24;;;;;;;6.53;5.85;;;;;;;11.80;100.00;92963.25;5089725;28;20036;-73
2022/09/13 00:55:56;;;;;;;6.82;6.10;;;;;;;11.82;100.00;92963.78;5089941;28;20103;-73
2022/09/13 00:58:29;;;;;;;6.88;6.18;;;;;;;11.65;100.00;92967.00;5107589;28;20040;-73
2022/09/13 01:00:58;;;;;;;8.10;6.53;;;;;;;11.57;100.00;92964.78;5109740;28;20043;-72
2022/09/13 01:03:28;;;;;;;7.25;6.30;;;;;;;11.57;100.00;92960.41;5110123;28;20043;-73
2022/09/13 01:06:00;;;;;;;6.90;6.03;;;;;;;11.43;100.00;92961.63;5109617;28;20039;-72
2022/09/13 01:08:30;;;;;;;6.53;5.88;;;;;;;11.40;100.00;92964.63;5109652;28;20048;-73
2022/09/13 01:11:00;;;;;;;7.20;6.10;;;;;;;11.42;100.00;92960.03;5109322;28;20048;-73
2022/09/13 01:13:30;;;;;;;8.93;6.43;;;;;;;11.43;100.00;92961.63;5109814;28;20076;-73
2022/09/13 01:15:57;;;;;;;7.18;6.20;;;;;;;11.46;100.00;92961.97;5109252;28;20054;-73
2022/09/13 01:18:25;;;;;;;6.63;5.93;;;;;;;11.48;100.00;92933.47;5109997;28;20044;-72
2022/09/13 01:21:29;;;;;;;7.93;6.80;;;;;;;11.60;100.00;92957.41;5109252;28;20044;-73
2022/09/13 01:24:15;;;;;;;8.15;6.72;;;;;;;11.56;100.00;92934.91;5102764;28;20051;-73
2022/09/13 01:27:23;;;;;;;7.97;6.40;;;;;;;11.75;100.00;92949.25;5109325;28;20048;-72
2022/09/13 01:30:15;;;;;;;7.25;6.55;;;;;;;11.70;100.00;92950.91;5087086;28;20043;-72
2022/09/13 01:33:02;;;;;;;7.25;6.00;;;;;;;11.79;100.00;92939.28;5087529;28;20047;-72
2022/09/13 01:35:41;;;;;;;7.13;6.43;;;;;;;11.74;100.00;92929.66;5095646;28;20039;-73
2022/09/13 01:38:22;;;;;;;6.93;6.22;;;;;;;11.77;100.00;92931.78;5109476;28;20116;-71
2022/09/13 01:41:02;;;;;;;7.45;6.05;;;;;;;11.78;100.00;92945.44;5109117;28;20494;-73
2022/09/13 01:43:42;;;;;;;7.55;6.00;;;;;;;11.76;100.00;92943.09;5108969;28;20051;-72
2022/09/13 01:46:16;;;;;;;7.60;5.78;;;;;;;11.76;100.00;92945.66;5109091;28;20044;-72
2022/09/13 01:48:59;;;;;;;8.15;6.18;;;;;;;11.77;100.00;92938.72;5109262;28;20056;-72
2022/09/13 01:51:32;;;;;;;7.25;6.20;;;;;;;11.67;100.00;92928.97;5109381;28;20040;-72
2022/09/13 01:54:13;;;;;;;6.85;6.00;;;;;;;11.72;100.00;92939.38;5109201;28;20043;-72
2022/09/13 01:56:46;;;;;;;8.50;6.60;;;;;;;11.78;100.00;92932.56;5108618;28;20040;-72
2022/09/13 01:59:20;;;;;;;7.60;6.35;;;;;;;11.79;100.00;92939.28;5108992;28;20548;-72
2022/09/13 02:01:55;;;;;;;6.75;6.05;;;;;;;11.74;100.00;92937.38;5109068;28;20055;-72
2022/09/13 02:04:27;;;;;;;9.23;6.80;;;;;;;11.77;100.00;92941.31;5109175;28;20047;-72
2022/09/13 02:07:02;;;;;;;7.07;6.38;;;;;;;11.79;100.00;92936.72;5109229;28;20337;-72
2022/09/13 02:09:34;;;;;;;7.20;6.38;;;;;;;11.82;100.00;92938.84;5109414;28;20047;-72
2022/09/13 02:12:06;;;;;;;6.97;6.28;;;;;;;11.86;100.00;92934.81;5121323;28;20061;-72
2022/09/13 02:14:37;;;;;;;7.72;6.35;;;;;;;11.87;100.00;92935.59;5129779;28;20035;-72
2022/09/13 02:17:09;;;;;;;6.90;6.20;;;;;;;11.85;100.00;92935.81;5130136;28;20130;-72
2022/09/13 02:19:41;;;;;;;7.65;6.20;;;;;;;11.87;100.00;92930.44;5122203;28;20122;-72
2022/09/13 02:22:11;;;;;;;7.50;6.53;;;;;;;11.87;100.00;92933.81;5124152;28;20055;-71
2022/09/13 02:24:42;;;;;;;7.65;6.85;;;;;;;11.90;100.00;92935.16;5129473;28;20084;-71
2022/09/13 02:27:12;;;;;;;6.82;6.13;;;;;;;11.92;100.00;92934.91;5129969;28;20104;-71
2022/09/13 02:29:43;;;;;;;7.10;6.43;;;;;;;11.90;100.00;92927.44;5129810;28;20043;-72
2022/09/13 02:32:15;;;;;;;8.73;6.95;;;;;;;11.89;100.00;92936.94;5129611;28;20062;-73
2022/09/13 02:34:47;;;;;;;8.82;6.68;;;;;;;11.90;100.00;92942.88;5101190;28;20088;-72
2022/09/13 02:37:14;;;;;;;7.20;6.43;;;;;;;11.91;100.00;92939.28;5129797;28;20047;-72
2022/09/13 02:39:47;;;;;;;7.90;6.55;;;;;;;11.93;100.00;92939.06;5129657;28;20043;-72
2022/09/13 02:42:19;;;;;;;7.57;6.78;;;;;;;11.94;100.00;92943.22;5129524;28;20051;-72
2022/09/13 02:44:50;;;;;;;8.00;6.55;;;;;;;11.93;100.00;92937.28;5129339;28;20059;-72
2022/09/13 02:47:34;;;;;;;7.15;6.45;;;;;;;11.78;100.00;92940.28;5129650;28;20047;-72
2022/09/13 02:50:11;;;;;;;8.10;7.18;;;;;;;11.75;100.00;92946.66;5129655;28;20095;-72
2022/09/13 02:52:48;;;;;;;7.78;6.80;;;;;;;11.79;100.00;92941.84;5129347;28;20468;-72
2022/09/13 02:55:21;;;;;;;7.38;6.68;;;;;;;11.79;100.00;92936.72;5129779;28;20047;-72
2022/09/13 02:57:55;;;;;;;7.07;6.38;;;;;;;11.74;100.00;92934.81;5129434;28;20098;-72
2022/09/13 03:00:23;;;;;;;7.88;6.82;;;;;;;11.71;100.00;92937.06;5129177;28;20100;-72
2022/09/13 03:02:53;;;;;;;8.77;6.88;;;;;;;11.65;100.00;92933.56;5129711;28;20057;-71
2022/09/13 03:05:20;;;;;;;7.43;6.60;;;;;;;11.63;100.00;92941.50;5129018;28;20096;-72
2022/09/13 03:07:48;;;;;;;9.60;6.75;;;;;;;11.57;100.00;92926.97;5130293;27;20043;-72
2022/09/13 03:10:16;;;;;;;7.78;6.82;;;;;;;11.53;100.00;92935.34;5133288;27;20049;-72
2022/09/13 03:12:55;;;;;;;8.10;6.35;;;;;;;11.43;100.00;92938.47;5133357;27;20446;-72
2022/09/13 03:15:34;;;;;;;7.25;6.55;;;;;;;11.42;100.00;92929.97;5132839;27;20099;-72
2022/09/13 03:18:16;;;;;;;8.10;6.35;;;;;;;11.39;100.00;92937.34;5132957;27;20043;-72
2022/09/13 03:20:53;;;;;;;7.75;6.55;;;;;;;11.29;100.00;92925.03;5118295;27;20498;-72
2022/09/13 03:23:34;;;;;;;8.25;6.30;;;;;;;11.30;100.00;92932.50;5132943;27;20088;-72
2022/09/13 03:26:22;;;;;;;8.27;6.30;;;;;;;11.28;100.00;92928.59;5132451;27;20499;-72
2022/09/13 03:29:01;;;;;;;6.65;6.03;;;;;;;11.16;100.00;92928.56;5132700;27;20043;-72
2022/09/13 03:31:33;;;;;;;7.05;6.35;;;;;;;11.12;100.00;92937.72;5132681;27;20039;-72
2022/09/13 03:34:10;;;;;;;6.60;5.90;;;;;;;11.12;100.00;92930.81;5132534;27;20051;-71
2022/09/13 03:36:43;;;;;;;7.18;6.47;;;;;;;11.11;100.00;92938.72;5132697;27;20112;-72
2022/09/13 03:39:17;;;;;;;7.32;5.78;;;;;;;11.11;100.00;92933.59;5132504;27;20092;-71
2022/09/13 03:41:51;;;;;;;6.97;6.13;;;;;;;11.12;100.00;92942.88;5132743;27;20071;-72
2022/09/13 03:44:21;;;;;;;8.38;6.05;;;;;;;11.06;100.00;92942.75;5132277;27;20051;-72
2022/09/13 03:46:51;;;;;;;7.53;5.82;;;;;;;11.07;100.00;92946.09;5132680;27;20057;-72
2022/09/13 03:49:23;;;;;;;7.82;6.22;;;;;;;11.04;100.00;92949.09;5132624;27;20420;-72
2022/09/13 03:51:51;;;;;;;7.18;5.88;;;;;;;11.05;100.00;92950.66;5132544;27;20047;-73
2022/09/13 03:54:20;;;;;;;7.40;5.72;;;;;;;11.00;100.00;92948.75;5132097;27;20047;-72
2022/09/13 03:57:11;;;;;;;7.43;6.05;;;;;;;11.01;100.00;92942.59;5132337;27;20088;-72
2022/09/13 03:59:41;;;;;;;7.00;6.03;;;;;;;10.96;100.00;92945.03;5132182;27;20047;-72
2022/09/13 04:02:10;;;;;;;7.88;6.20;;;;;;;10.94;100.00;92957.34;5111843;28;20048;-72
2022/09/13 04:04:39;;;;;;;7.25;5.63;;;;;;;10.88;100.00;92955.66;5111074;28;20396;-72
2022/09/13 04:07:06;;;;;;;7.75;6.43;;;;;;;10.87;100.00;92959.97;5111819;28;20044;-73
2022/09/13 04:09:33;;;;;;;6.88;6.13;;;;;;;10.83;100.00;92961.41;5111391;28;20051;-73
2022/09/13 04:11:59;;;;;;;7.25;6.20;;;;;;;10.78;100.00;92961.31;5111044;28;20089;-72
2022/09/13 04:14:27;;;;;;;7.45;6.25;;;;;;;10.78;100.00;92962.06;5111617;28;20104;-72
2022/09/13 04:16:54;;;;;;;6.35;5.57;;;;;;;10.77;100.00;92964.84;5111424;28;20040;-72
2022/09/13 04:19:21;;;;;;;6.32;5.72;;;;;;;10.71;100.00;92963.16;5105415;28;20043;-73
2022/09/13 04:21:50;;;;;;;7.00;6.30;;;;;;;10.56;100.00;92949.69;5102888;28;20503;-73
2022/09/13 04:24:17;;;;;;;8.45;5.75;;;;;;;10.66;100.00;92958.66;5110756;28;20089;-73
2022/09/13 04:26:44;;;;;;;7.97;6.28;;;;;;;10.46;100.00;92931.44;5111330;28;20051;-73
2022/09/13 04:29:11;;;;;;;9.13;6.03;;;;;;;10.67;100.00;92963.59;5111275;28;20043;-72
2022/09/13 04:31:38;;;;;;;10.07;6.55;;;;;;;10.66;100.00;92968.94;5111046;28;20085;-72
2022/09/13 04:34:06;;;;;;;8.93;6.78;;;;;;;10.43;100.00;92968.59;5110695;28;20552;-72
2022/09/13 04:36:33;;;;;;;8.95;6.90;;;;;;;10.47;100.00;92971.53;5110843;28;20043;-72
2022/09/13 04:39:01;;;;;;;10.57;7.35;;;;;;;10.42;100.00;92972.13;5110937;28;20100;-72
2022/09/13 04:41:28;;;;;;;9.35;7.18;;;;;;;10.41;100.00;92978.28;5110683;28;20071;-72
2022/09/13 04:43:55;;;;;;;9.55;7.43;;;;;;;10.44;100.00;92977.09;5110708;28;20134;-72
2022/09/13 04:46:22;;;;;;;9.43;6.93;;;;;;;10.52;100.00;92976.00;5110349;28;20059;-71
2022/09/13 04:48:49;;;;;;;9.73;7.88;;;;;;;10.53;100.00;92980.94;5110884;28;20047;-72
2022/09/13 04:51:16;;;;;;;9.95;7.45;;;;;;;10.63;100.00;92980.44;5110400;28;20089;-72
2022/09/13 04:53:43;;;;;;;12.15;8.05;;;;;;;10.70;100.00;92993.22;5110497;28;20559;-72
2022/09/13 04:56:13;;;;;;;11.20;8.10;;;;;;;10.74;100.00;92978.16;5110674;28;20047;-72
2022/09/13 04:58:40;;;;;;;7.70;6.88;;;;;;;10.83;100.00;92985.34;5110567;28;20055;-72
2022/09/13 05:01:09;;;;;;;9.32;7.80;;;;;;;10.99;100.00;92982.38;5122723;27;20111;-72
2022/09/13 05:03:36;;;;;;;11.98;8.07;;;;;;;11.09;100.00;92992.94;5130991;27;20035;-72
2022/09/13 05:06:04;;;;;;;12.13;7.57;;;;;;;11.15;100.00;92981.78;5130741;27;20096;-72
2022/09/13 05:08:31;;;;;;;13.43;8.55;;;;;;;11.21;100.00;92980.13;5130870;27;20088;-72
2022/09/13 05:10:58;;;;;;;13.10;7.50;;;;;;;11.26;100.00;92976.88;5130526;27;20043;-73
2022/09/13 05:13:26;;;;;;;11.13;7.70;;;;;;;11.32;100.00;92989.66;5130847;27;20051;-72
2022/09/13 05:15:55;;;;;;;8.77;7.38;;;;;;;11.36;100.00;92990.00;5130544;27;20047;-72
2022/09/13 05:18:22;;;;;;;12.13;7.40;;;;;;;11.36;100.00;92984.84;5130540;27;20130;-72
2022/09/13 05:20:49;;;;;;;11.40;7.68;;;;;;;11.37;100.00;92983.84;5116268;27;20047;-73
2022/09/13 05:23:16;;;;;;;8.65;7.32;;;;;;;11.38;100.00;92985.41;5130536;27;20410;-72
2022/09/13 05:25:42;;;;;;;8.98;7.90;;;;;;;11.35;100.00;92983.28;5130226;27;20059;-72
2022/09/13 05:28:10;;;;;;;11.88;7.97;;;;;;;11.32;100.00;92978.56;5130716;27;20039;-72
2022/09/13 05:30:39;;;;;;;10.25;7.93;;;;;;;11.40;100.00;92991.13;5129729;27;20051;-72
2022/09/13 05:33:05;;;;;;;11.57;7.75;;;;;;;11.39;100.00;92988.78;5130280;27;20392;-72
2022/09/13 05:35:32;;;;;;;10.52;8.80;;;;;;;11.36;100.00;92997.72;5130212;27;20095;-72
2022/09/13 05:37:59;;;;;;;13.40;9.57;;;;;;;11.40;100.00;92988.56;5130388;27;20043;-72
2022/09/13 05:40:25;;;;;;;10.27;8.60;;;;;;;11.44;100.00;92989.66;5130197;27;20047;-73
2022/09/13 05:42:53;;;;;;;11.32;8.25;;;;;;;11.45;100.00;92988.69;5130414;27;20088;-73
2022/09/13 05:45:20;;;;;;;12.45;8.07;;;;;;;11.50;100.00;92995.75;5130231;27;20047;-72
2022/09/13 05:47:51;;;;;;;11.98;8.43;;;;;;;11.55;100.00;92998.44;5130287;27;20445;-72
2022/09/13 05:50:19;;;;;;;11.25;7.60;;;;;;;11.61;100.00;92996.75;5130320;27;20111;-72
2022/09/13 05:52:52;;;;;;;10.52;7.28;;;;;;;11.65;100.00;92994.53;5129889;27;20047;-72
2022/09/13 05:55:18;;;;;;;10.07;7.63;;;;;;;11.73;100.00;93001.94;5130142;27;20053;-72
2022/09/13 05:57:45;;;;;;;12.38;8.13;;;;;;;11.81;100.00;92996.44;5129972;27;20043;-73
2022/09/13 06:00:13;;;;;;;9.25;7.32;;;;;;;11.89;100.00;92990.19;5124116;27;20101;-72
2022/09/13 06:02:40;;;;;;;14.27;8.80;;;;;;;12.00;100.00;92997.13;5122228;28;20134;-72
2022/09/13 06:05:09;;;;;;;12.65;8.88;;;;;;;12.10;100.00;92988.91;5129781;28;20494;-73
2022/09/13 06:07:36;;;;;;;11.15;7.70;;;;;;;12.19;100.00;92994.50;5130102;28;20380;-72
2022/09/13 06:10:03;;;;;;;8.98;7.53;;;;;;;12.30;100.00;92998.06;5129799;28;20054;-72
2022/09/13 06:12:30;;;;;;;11.23;8.05;;;;;;;12.39;100.00;92994.16;5130068;28;20043;-73
2022/09/13 06:14:57;;;;;;;12.00;8.68;;;;;;;12.52;100.00;92997.47;5129813;28;20055;-73
2022/09/13 06:17:24;;;;;;;12.15;9.05;;;;;;;12.62;100.00;92995.13;5129840;28;20091;-73
2022/09/13 06:19:51;;;;;;;13.95;9.13;;;;;;;12.87;100.00;92996.59;5120025;28;20495;-73
2022/09/13 06:22:19;;;;;;;12.43;8.43;;;;;;;13.07;100.00;93003.97;5125713;28;20444;-73
2022/09/13 06:24:46;;;;;;;12.10;8.93;;;;;;;13.09;100.00;93003.72;5129979;28;20047;-72
2022/09/13 06:27:15;;;;;;;10.45;8.13;;;;;;;13.20;100.00;93000.31;5129628;28;20544;-73
2022/09/13 06:29:42;;;;;;;11.32;8.73;;;;;;;13.40;100.00;93014.59;5129709;28;20035;-73
2022/09/13 06:32:09;;;;;;;12.43;7.30;;;;;;;13.58;100.00;93007.69;5129850;28;20106;-73
2022/09/13 06:34:36;;;;;;;13.77;8.70;;;;;;;13.72;100.00;93014.13;5129461;28;20464;-73
2022/09/13 06:37:03;;;;;;;14.40;8.07;;;;;;;13.84;100.00;93015.84;5129973;28;20047;-73
2022/09/13 06:39:33;;;;;;;10.38;7.32;;;;;;;13.72;100.00;93015.91;5129784;28;20130;-73
2022/09/13 06:41:59;;;;;;;10.95;7.45;;;;;;;13.76;100.00;93022.19;5129443;27;20051;-73
2022/09/13 06:44:26;;;;;;;10.15;7.30;;;;;;;13.78;100.00;93014.22;5132754;27;20558;-73
2022/09/13 06:46:53;;;;;;;10.73;7.60;;;;;;;13.93;100.00;93022.19;5133757;27;20088;-73
2022/09/13 06:49:19;;;;;;;10.63;7.15;;;;;;;13.70;100.00;93031.63;5133520;27;20047;-73
2022/09/13 06:51:46;;;;;;;9.65;6.13;;;;;;;13.80;100.00;93032.81;5133372;27;20162;-73
2022/09/13 06:54:13;;;;;;;9.15;7.00;;;;;;;13.79;100.00;93028.69;5133779;27;20055;-73
2022/09/13 06:56:41;;;;;;;10.05;6.28;;;;;;;13.84;100.00;93024.38;5133346;27;20038;-73
2022/09/13 06:59:10;;;;;;;12.35;7.88;;;;;;;13.99;100.00;93028.22;5133329;27;20043;-73
2022/09/13 07:01:39;;;;;;;12.65;6.75;;;;;;;13.99;100.00;93028.97;5132841;27;20047;-73
2022/09/13 07:04:07;;;;;;;14.82;7.40;;;;;;;14.00;100.00;93020.25;5133841;27;20099;-73
2022/09/13 07:06:36;;;;;;;13.07;7.72;;;;;;;14.30;100.00;93034.59;5133262;27;20100;-73
2022/09/13 07:09:05;;;;;;;11.60;6.72;;;;;;;14.49;100.00;93036.16;5133384;27;20092;-73
2022/09/13 07:11:34;;;;;;;14.13;7.00;;;;;;;14.81;100.00;93035.53;5132924;27;20040;-73
2022/09/13 07:14:02;;;;;;;9.23;6.75;;;;;;;15.01;100.00;93042.00;5133085;27;20043;-74
2022/09/13 07:16:30;;;;;;;8.38;6.07;;;;;;;15.28;100.00;93051.63;5133096;27;20040;-74
2022/09/13 07:18:59;;;;;;;11.68;6.60;;;;;;;15.59;100.00;93049.31;5130292;27;20047;-74
2022/09/13 07:21:26;;;;;;;11.93;6.63;;;;;;;15.96;100.00;93047.88;5121384;27;20091;-74
2022/09/13 07:23:55;;;;;;;11.60;7.22;;;;;;;16.24;100.00;93044.19;5133103;27;20043;-73
2022/09/13 07:26:22;;;;;;;7.35;5.53;;;;;;;15.86;99.89;93048.53;5132893;27;20082;-73
2022/09/13 07:28:52;;;;;;;10.05;5.88;;;;;;;15.71;100.00;93052.56;5133338;27;20099;-73
2022/09/13 07:31:22;;;;;;;7.28;4.30;;;;;;;15.94;100.00;93050.72;5112169;27;20044;-73
2022/09/13 07:33:54;;;;;;;5.72;3.90;;;;;;;16.03;100.00;93038.84;5125353;27;20088;-73
2022/09/13 07:36:21;;;;;;;5.47;3.42;;;;;;;16.21;96.33;93051.69;5112216;27;20484;-73
2022/09/13 07:38:48;;;;;;;3.95;3.30;;;;;;;16.27;96.43;93059.25;5124527;27;20043;-73
2022/09/13 07:41:16;;;;;;;5.20;3.63;;;;;;;16.30;95.35;93061.34;5132520;27;20562;-73
2022/09/13 07:43:43;;;;;;;5.80;3.78;;;;;;;16.40;96.36;93059.84;5132571;27;20055;-73
2022/09/13 07:46:12;;;;;;;4.53;3.50;;;;;;;16.14;94.99;93062.25;5132549;27;20441;-73
2022/09/13 07:48:43;;;;;;;5.90;3.47;;;;;;;16.16;94.50;93060.97;5132247;27;20047;-74
2022/09/13 07:51:11;;;;;;;7.15;5.25;;;;;;;15.95;96.14;93054.06;5132396;27;20491;-73
2022/09/13 07:53:40;;;;;;;9.02;4.57;;;;;;;15.74;95.91;93064.25;5131736;27;20483;-74
2022/09/13 07:56:09;;;;;;;5.90;3.55;;;;;;;15.27;98.62;93056.00;5132465;27;20105;-74
2022/09/13 07:58:38;;;;;;;5.15;3.90;;;;;;;15.58;98.22;93058.91;5132391;27;20108;-74
2022/09/13 08:01:07;;;;;;;5.45;3.78;;;;;;;15.75;97.77;93063.97;5131833;27;20115;-74
2022/09/13 08:03:34;;;;;;;4.13;2.83;;;;;;;16.01;96.96;93058.25;5132329;27;20043;-74
2022/09/13 08:06:03;;;;;;;3.28;2.40;;;;;;;15.92;92.06;93055.31;5131931;27;20047;-73
2022/09/13 08:08:31;;;;;;;5.10;2.97;;;;;;;16.34;95.11;93050.47;5132199;27;20380;-73
2022/09/13 08:10:58;;;;;;;5.50;2.58;;;;;;;16.64;89.79;93055.06;5117496;27;20097;-73
2022/09/13 08:13:25;;;;;;;4.03;2.55;;;;;;;17.06;89.62;93058.69;5131896;27;20043;-74
2022/09/13 08:15:52;;;;;;;3.20;1.92;;;;;;;17.21;85.95;93057.94;5132023;27;20091;-74
2022/09/13 08:18:19;;;;;;;3.67;1.98;;;;;;;16.93;81.40;93066.88;5131526;27;20039;-74
2022/09/13 08:20:45;;;;;;;2.70;1.80;;;;;;;16.19;80.15;93064.13;5117047;27;20051;-73
2022/09/13 08:23:14;;;;;;;4.13;2.05;;;;;;;15.98;81.70;93077.66;5131880;27;20044;-73
2022/09/13 08:25:41;;;;;;;4.07;2.45;;;;;;;16.02;83.02;93065.03;5131489;27;20096;-74
2022/09/13 08:28:09;;;;;;;3.60;1.90;;;;;;;15.95;79.74;93077.38;5131615;27;20047;-74
2022/09/13 08:30:37;;;;;;;6.15;2.88;;;;;;;16.14;83.59;93063.03;5131677;27;20088;-74
2022/09/13 08:33:05;;;;;;;4.22;1.98;;;;;;;16.48;82.68;93056.00;5131669;27;20101;-74
2022/09/13 08:35:32;;;;;;;3.97;2.10;;;;;;;16.60;79.81;93059.19;5131630;27;20039;-74
2022/09/13 08:37:59;;;;;;;2.85;2.20;;;;;;;16.66;78.77;93065.97;5131148;27;20499;-74
2022/09/13 08:40:31;;;;;;;6.68;2.53;;;;;;;16.65;79.02;93040.28;5131645;27;20047;-74
2022/09/13 08:43:06;;;;;;;3.38;2.17;;;;;;;16.78;81.66;93058.00;5131200;27;20444;-74
2022/09/13 08:45:33;;;;;;;2.97;1.90;;;;;;;17.05;76.54;93062.31;5131267;27;20043;-74
2022/09/13 08:48:06;;;;;;;3.38;2.15;;;;;;;16.82;71.36;93063.47;5131142;27;20039;-74
2022/09/13 08:50:35;;;;;;;2.40;1.70;;;;;;;16.92;75.54;93060.13;5131383;27;20073;-73
2022/09/13 08:53:19;;;;;;;2.47;1.80;;;;;;;17.25;72.16;93060.03;5131105;27;20047;-73
2022/09/13 08:55:56;;;;;;;3.50;2.13;;;;;;;17.04;69.51;93055.53;5131564;27;20543;-74
2022/09/13 08:58:48;;;;;;;2.42;1.48;;;;;;;16.95;70.29;93044.84;5130841;27;20087;-74
2022/09/13 09:01:29;;;;;;;2.90;1.30;;;;;;;17.26;68.99;93046.78;5131043;27;20047;-74
2022/09/13 09:04:03;;;;;;;4.78;2.58;;;;;;;17.11;70.66;93049.34;5130632;27;20051;-74
2022/09/13 09:06:30;;;;;;;4.32;2.13;;;;;;;17.27;72.57;93047.59;5130215;27;20047;-74
2022/09/13 09:09:03;;;;;;;2.90;1.42;;;;;;;17.63;67.62;93052.84;5130921;27;20051;-74
2022/09/13 09:11:37;;;;;;;2.65;1.60;;;;;;;17.80;64.49;93049.25;5130920;27;20471;-73
2022/09/13 09:14:12;;;;;;;2.28;1.20;;;;;;;17.81;65.08;93048.97;5130989;27;20043;-73
2022/09/13 09:16:43;;;;;;;2.60;1.60;;;;;;;17.68;67.07;93050.25;5130718;27;20043;-74
2022/09/13 09:19:20;;;;;;;2.30;1.58;;;;;;;17.74;68.70;93046.63;5126355;27;20039;-74
2022/09/13 09:21:50;;;;;;;4.32;2.60;;;;;;;17.75;66.74;93045.63;5121880;27;20051;-74
2022/09/13 09:24:21;;;;;;;5.15;2.25;;;;;;;17.65;66.12;93057.78;5115672;27;20047;-73
2022/09/13 09:26:49;;;;;;;2.65;1.50;;;;;;;17.70;68.49;93045.59;5109521;28;20051;-74
2022/09/13 09:29:20;;;;;;;3.40;1.63;;;;;;;17.77;63.87;93048.72;5124273;27;20519;-74
2022/09/13 09:31:57;;;;;;;5.82;2.47;;;;;;;18.05;64.03;93037.31;5130478;27;20099;-74
2022/09/13 09:34:41;;;;;;;6.25;3.63;;;;;;;18.37;64.63;93031.09;5111022;27;20511;-74
2022/09/13 09:37:15;;;;;;;4.10;2.80;;;;;;;17.92;60.15;93036.78;5125794;27;20047;-74
2022/09/13 09:39:42;;;;;;;3.25;1.60;;;;;;;17.56;62.86;93023.75;5124124;27;20399;-73
2022/09/13 09:42:14;;;;;;;3.03;1.58;;;;;;;17.49;66.11;93026.59;5125226;27;20088;-73
2022/09/13 09:44:45;;;;;;;3.03;1.30;;;;;;;17.57;63.36;93020.91;5130449;27;20137;-74
2022/09/13 09:47:15;;;;;;;3.92;1.42;;;;;;;17.63;63.43;93019.09;5120867;27;20043;-74
2022/09/13 09:52:35;;;;;;;3.75;1.63;;;;;;;18.57;61.91;93009.47;5107613;27;20062;-74
2022/09/13 09:55:14;;;;;;;2.05;1.20;;;;;;;18.68;61.97;93013.59;5130097;27;20132;-73
2022/09/13 09:57:54;;;;;;;2.33;1.30;;;;;;;18.83;57.30;93011.97;5129659;27;20039;-73
2022/09/13 10:00:23;;;;;;;2.40;1.52;;;;;;;18.83;57.13;93011.97;5129664;27;20445;-74
2022/09/13 10:02:54;;;;;;;7.05;1.25;;;;;;;18.91;57.81;93003.63;5130157;27;20135;-74
2022/09/13 10:05:22;;;;;;;3.78;1.52;;;;;;;19.33;56.75;93006.84;5129731;28;20039;-74
2022/09/13 10:07:55;;;;;;;2.08;1.25;;;;;;;18.80;58.44;92991.69;5129906;28;20090;-74
2022/09/13 10:10:26;;;;;;;1.73;1.20;;;;;;;19.06;58.76;93002.00;5129921;28;20491;-74
2022/09/13 10:12:56;;;;;;;3.33;1.50;;;;;;;19.23;58.37;92997.25;5101988;28;20099;-73
2022/09/13 10:15:25;;;;;;;3.10;1.75;;;;;;;18.89;58.35;92999.72;5129615;28;20071;-73
2022/09/13 10:18:15;;;;;;;2.75;1.73;;;;;;;18.79;58.32;92996.09;5132506;27;20088;-73
2022/09/13 10:20:59;;;;;;;2.45;1.40;;;;;;;19.13;61.10;92992.09;5119596;27;20055;-73
2022/09/13 10:23:26;;;;;;;2.97;1.98;;;;;;;19.05;60.31;92996.03;5134240;27;20118;-75
2022/09/13 10:26:04;;;;;;;3.55;2.30;;;;;;;18.92;64.08;92984.34;5134148;27;20050;-73
2022/09/13 10:28:35;;;;;;;3.90;2.05;;;;;;;18.82;65.18;92987.78;5126393;27;20048;-74
2022/09/13 10:31:06;;;;;;;4.68;1.67;;;;;;;19.06;64.72;92991.59;5131391;27;20543;-74
2022/09/13 10:33:36;;;;;;;2.40;1.67;;;;;;;19.01;64.44;92992.38;5133953;27;20147;-74
2022/09/13 10:36:06;;;;;;;3.58;1.92;;;;;;;19.27;63.95;92976.66;5133749;27;20092;-74
2022/09/13 10:38:36;;;;;;;2.28;1.50;;;;;;;19.58;62.01;92978.28;5133793;27;20043;-74
2022/09/13 10:41:06;;;;;;;3.85;1.60;;;;;;;19.82;59.48;92964.56;5133623;27;20050;-74
2022/09/13 10:43:35;;;;;;;4.95;1.50;;;;;;;19.75;53.61;92980.50;5133479;27;20043;-73
2022/09/13 10:46:06;;;;;;;2.47;1.50;;;;;;;19.73;54.79;92956.56;5133262;27;20506;-74
2022/09/13 10:48:46;;;;;;;4.35;1.60;;;;;;;19.71;57.28;92966.44;5133687;27;20112;-73
2022/09/13 10:51:28;;;;;;;2.95;1.92;;;;;;;19.58;61.79;92975.69;5133229;27;20047;-74
2022/09/13 10:54:10;;;;;;;3.45;2.05;;;;;;;19.69;63.18;92977.16;5133498;27;20111;-73
2022/09/13 10:56:37;;;;;;;4.57;2.30;;;;;;;19.62;62.96;92976.69;5133191;27;20042;-73
2022/09/13 10:59:19;;;;;;;2.97;1.65;;;;;;;19.28;63.29;92972.22;5133481;27;20082;-74
2022/09/13 11:01:56;;;;;;;3.03;1.55;;;;;;;19.81;63.22;92966.38;5133392;27;20112;-74
2022/09/13 11:04:47;;;;;;;2.83;1.73;;;;;;;20.12;60.95;92965.38;5133294;27;20077;-74
2022/09/13 11:07:43;;;;;;;2.83;1.80;;;;;;;20.36;57.91;92957.56;5132139;27;20047;-74
2022/09/13 11:10:19;;;;;;;4.43;1.58;;;;;;;20.13;55.99;92957.28;5073240;28;20487;-74
2022/09/13 11:12:58;;;;;;;5.80;1.58;;;;;;;20.20;53.67;92964.00;5091810;28;20052;-74
2022/09/13 11:15:47;;;;;;;1.90;1.00;;;;;;;20.46;51.92;92954.06;5109595;28;20089;-75
2022/09/13 11:18:43;;;;;;;4.40;1.20;;;;;;;19.85;48.03;92964.00;5105660;28;20044;-75
2022/09/13 11:21:25;;;;;;;3.13;1.50;;;;;;;20.11;52.76;92956.78;5111830;28;20066;-74
2022/09/13 11:24:34;;;;;;;2.33;1.48;;;;;;;19.94;53.62;92953.78;5112135;28;20040;-74
2022/09/13 11:27:10;;;;;;;3.78;1.70;;;;;;;19.76;56.81;92945.56;5103835;28;20136;-74
2022/09/13 11:29:48;;;;;;;;;;;;;;;20.02;54.45;92948.78;5122578;27;20044;-74
2022/09/13 11:32:29;;;;;;;2.45;1.33;;;;;;;19.86;53.54;92949.94;5132970;27;19939;-74
2022/09/13 11:35:15;;;;;;;2.55;1.90;;;;;;;19.76;56.60;92948.97;5132374;27;20043;-74
2022/09/13 11:37:50;;;;;;;3.13;1.40;;;;;;;20.05;55.12;92937.03;5132320;27;20566;-74
2022/09/13 11:40:32;;;;;;;3.75;2.22;;;;;;;20.38;52.70;92939.03;5132461;27;20448;-74
2022/09/13 11:43:10;;;;;;;4.05;1.10;;;;;;;20.64;51.05;92936.16;5132127;27;20835;-74
2022/09/13 11:45:43;;;;;;;2.20;1.10;;;;;;;20.75;49.07;92936.81;5132123;27;20035;-74
2022/09/13 11:48:34;;;;;;;2.10;1.10;;;;;;;20.98;48.79;92932.63;5132479;27;20050;-75
2022/09/13 11:51:10;;;;;;;1.92;1.23;;;;;;;21.33;48.93;92940.25;5132430;27;20127;-74